sim
Sign-in with your pilot id or email,
or register
Callsign
Passwort

Schedule Details

Flight Number: DLH2439
Departure: Copenhagen Airport (EKCH) at 20:30
Arrival: Munich Airport (EDDM) at 22:05
Route: Lufthansa Passenger Schedule. Enter filed route here before submitting Pirep.

Weather Information
Getting current METAR information for EKCH 221550Z AUTO 16008KT 9999 NCD 18/14 Q1008 NOSIG
Getting current METAR information for EDDM 221550Z VRB02KT 9999 FEW040CB 23/14 Q1010 NOSIG

Schedule Frequency

Route Map